Time;durP1;ratioP1;P1;durP2;ratioP2;P2;SDS_P1;SDS_P2;PMS_P1;PMS_P2;Temp;Humidity;BMP_temperature;BMP_pressure;BME280_temperature;BME280_humidity;BME280_pressure;Samples;Min_cycle;Max_cycle;Signal;HPM_P1;HPM_P2
2021/06/13 00:01:05;;;;;;;3.53;2.70;;;;;;;;;;5118044;28;20031;-72
2021/06/13 00:03:31;;;;;;;5.97;3.38;;;;;;;;;;5118123;28;20521;-71
2021/06/13 00:05:57;;;;;;;5.53;4.00;;;;;;;;;;5117919;28;20019;-71
2021/06/13 00:08:24;;;;;;;3.47;3.03;;;;;;;;;;5118019;28;20027;-71
2021/06/13 00:10:50;;;;;;;3.67;2.72;;;;;;;;;;5117430;28;20031;-72
2021/06/13 00:13:16;;;;;;;5.38;3.67;;;;;;;;;;5116990;28;20028;-70
2021/06/13 00:15:42;;;;;;;3.75;3.30;;;;;;;;;;5117423;28;20076;-70
2021/06/13 00:18:08;;;;;;;4.20;2.90;;;;;;;;;;5117542;28;20024;-70
2021/06/13 00:20:34;;;;;;;4.63;3.47;;;;;;;;;;5116908;28;20048;-71
2021/06/13 00:23:01;;;;;;;3.00;2.75;;;;;;;;;;5117345;28;20039;-72
2021/06/13 00:25:27;;;;;;;4.72;3.38;;;;;;;;;;5117441;28;20495;-72
2021/06/13 00:27:53;;;;;;;3.95;2.80;;;;;;;;;;5117347;28;20053;-72
2021/06/13 00:30:19;;;;;;;4.85;3.28;;;;;;;;;;5117598;28;20031;-71
2021/06/13 00:32:45;;;;;;;7.25;3.13;;;;;;;;;;5117080;28;20063;-71
2021/06/13 00:35:12;;;;;;;3.63;2.75;;;;;;;;;;5117278;28;20036;-72
2021/06/13 00:37:38;;;;;;;3.90;3.45;;;;;;;;;;5117218;28;20056;-72
2021/06/13 00:40:05;;;;;;;3.22;2.90;;;;;;;;;;5116857;28;20072;-72
2021/06/13 00:42:31;;;;;;;5.35;3.13;;;;;;;;;;5116835;28;20507;-72
2021/06/13 00:44:57;;;;;;;3.83;3.45;;;;;;;;;;5117097;28;20024;-72
2021/06/13 00:47:23;;;;;;;3.28;2.83;;;;;;;;;;5117193;28;20076;-72
2021/06/13 00:49:50;;;;;;;9.25;2.80;;;;;;;;;;5116866;28;20469;-71
2021/06/13 00:52:16;;;;;;;3.35;3.00;;;;;;;;;;5117018;28;20051;-71
2021/06/13 00:54:42;;;;;;;3.33;2.85;;;;;;;;;;5116633;28;20102;-72
2021/06/13 00:57:08;;;;;;;4.15;3.15;;;;;;;;;;5116386;28;20473;-72
2021/06/13 00:59:34;;;;;;;2.85;2.65;;;;;;;;;;5116898;28;20035;-72
2021/06/13 01:02:00;;;;;;;3.72;3.03;;;;;;;;;;5116241;28;20101;-72
2021/06/13 01:04:27;;;;;;;5.00;2.42;;;;;;;;;;5116527;28;20019;-72
2021/06/13 01:07:03;;;;;;;3.05;2.85;;;;;;;;;;5116167;28;20023;-72
2021/06/13 01:09:32;;;;;;;3.00;2.70;;;;;;;;;;5116264;28;20023;-71
2021/06/13 01:12:18;;;;;;;3.30;3.00;;;;;;;;;;5116037;28;20046;-71
2021/06/13 01:15:04;;;;;;;6.07;2.95;;;;;;;;;;5101242;28;20110;-72
2021/06/13 01:17:32;;;;;;;3.00;2.70;;;;;;;;;;5101627;28;20069;-72
2021/06/13 01:20:09;;;;;;;2.85;2.60;;;;;;;;;;5116235;28;20500;-72
2021/06/13 01:22:55;;;;;;;2.83;2.55;;;;;;;;;;5116489;28;20035;-73
2021/06/13 01:25:32;;;;;;;4.15;3.10;;;;;;;;;;5101135;28;20432;-71
2021/06/13 01:28:18;;;;;;;3.53;2.55;;;;;;;;;;5116449;28;20084;-72
2021/06/13 01:30:44;;;;;;;3.58;2.80;;;;;;;;;;5100796;28;20459;-72
2021/06/13 01:33:11;;;;;;;3.03;2.72;;;;;;;;;;5116807;28;20024;-72
2021/06/13 01:35:37;;;;;;;3.65;2.78;;;;;;;;;;5116231;28;20034;-72
2021/06/13 01:38:04;;;;;;;2.50;2.25;;;;;;;;;;5116107;28;20034;-72
2021/06/13 01:40:31;;;;;;;2.72;2.53;;;;;;;;;;5116046;28;20147;-72
2021/06/13 01:42:58;;;;;;;3.22;2.92;;;;;;;;;;5115545;28;20157;-71
2021/06/13 01:45:26;;;;;;;2.58;2.38;;;;;;;;;;5115492;28;20123;-72
2021/06/13 01:47:52;;;;;;;4.63;3.05;;;;;;;;;;5115491;28;20353;-72
2021/06/13 01:50:18;;;;;;;3.65;2.08;;;;;;;;;;5115800;28;20059;-72
2021/06/13 01:52:46;;;;;;;4.57;2.75;;;;;;;;;;5115686;28;20027;-72
2021/06/13 01:55:12;;;;;;;3.72;3.10;;;;;;;;;;5115664;28;20060;-72
2021/06/13 01:57:40;;;;;;;9.80;2.45;;;;;;;;;;5115991;28;20112;-72
2021/06/13 02:00:07;;;;;;;3.22;2.42;;;;;;;;;;5115521;28;20023;-71
2021/06/13 02:02:33;;;;;;;3.03;2.35;;;;;;;;;;5115668;28;20032;-71
2021/06/13 02:04:59;;;;;;;12.43;2.72;;;;;;;;;;5115469;28;20059;-72
2021/06/13 02:07:25;;;;;;;2.67;2.47;;;;;;;;;;5115510;28;20453;-72
2021/06/13 02:09:51;;;;;;;2.65;2.45;;;;;;;;;;5115868;28;20031;-72
2021/06/13 02:12:18;;;;;;;2.65;2.33;;;;;;;;;;5115675;28;20533;-73
2021/06/13 02:14:45;;;;;;;3.00;2.70;;;;;;;;;;5113964;28;20118;-71
2021/06/13 02:17:11;;;;;;;3.22;2.92;;;;;;;;;;5115242;28;20055;-72
2021/06/13 02:19:37;;;;;;;3.53;2.63;;;;;;;;;;5115654;28;20350;-72
2021/06/13 02:22:03;;;;;;;3.33;2.47;;;;;;;;;;5115590;28;20037;-72
2021/06/13 02:24:30;;;;;;;4.63;2.53;;;;;;;;;;5115054;28;20377;-72
2021/06/13 02:26:57;;;;;;;2.88;2.60;;;;;;;;;;5114766;28;20525;-73
2021/06/13 02:29:24;;;;;;;4.40;2.40;;;;;;;;;;5114856;28;20051;-71
2021/06/13 02:31:50;;;;;;;5.75;2.55;;;;;;;;;;5114988;28;20465;-71
2021/06/13 02:34:20;;;;;;;2.33;2.05;;;;;;;;;;5114871;28;20028;-71
2021/06/13 02:36:46;;;;;;;2.47;2.13;;;;;;;;;;5115126;28;20153;-72
2021/06/13 02:39:12;;;;;;;2.65;2.17;;;;;;;;;;5115016;28;20385;-71
2021/06/13 02:41:39;;;;;;;5.50;2.55;;;;;;;;;;5114498;28;20425;-72
2021/06/13 02:44:05;;;;;;;2.40;2.20;;;;;;;;;;5114994;28;20547;-72
2021/06/13 02:46:31;;;;;;;2.20;2.00;;;;;;;;;;5114685;28;20028;-72
2021/06/13 02:48:57;;;;;;;2.50;2.30;;;;;;;;;;5114415;28;20477;-72
2021/06/13 02:51:24;;;;;;;2.78;2.10;;;;;;;;;;5114555;28;20511;-72
2021/06/13 02:53:51;;;;;;;2.80;2.25;;;;;;;;;;5114845;28;20047;-72
2021/06/13 02:56:26;;;;;;;3.13;2.65;;;;;;;;;;5114721;28;20461;-73
2021/06/13 02:59:12;;;;;;;2.90;1.95;;;;;;;;;;5114695;28;20173;-72
2021/06/13 03:01:39;;;;;;;2.63;2.28;;;;;;;;;;5100014;28;20419;-72
2021/06/13 03:04:05;;;;;;;2.22;2.03;;;;;;;;;;5115022;28;20069;-72
2021/06/13 03:06:31;;;;;;;3.20;2.55;;;;;;;;;;5114568;28;20024;-72
2021/06/13 03:08:57;;;;;;;3.50;2.50;;;;;;;;;;5114565;28;20055;-71
2021/06/13 03:11:24;;;;;;;2.60;1.90;;;;;;;;;;5114646;28;20027;-72
2021/06/13 03:13:50;;;;;;;2.30;2.10;;;;;;;;;;5114666;28;20080;-72
2021/06/13 03:16:16;;;;;;;5.88;2.42;;;;;;;;;;5114685;28;20022;-72
2021/06/13 03:18:43;;;;;;;2.25;1.98;;;;;;;;;;5114231;28;20023;-72
2021/06/13 03:21:09;;;;;;;3.03;2.05;;;;;;;;;;5114375;28;20483;-72
2021/06/13 03:23:35;;;;;;;4.80;2.10;;;;;;;;;;5114329;28;20036;-72
2021/06/13 03:26:02;;;;;;;2.80;2.10;;;;;;;;;;5116321;28;20031;-72
2021/06/13 03:28:29;;;;;;;2.42;2.13;;;;;;;;;;5118595;28;20027;-72
2021/06/13 03:30:55;;;;;;;2.35;2.10;;;;;;;;;;5118422;28;20031;-72
2021/06/13 03:33:21;;;;;;;2.25;1.88;;;;;;;;;;5118890;28;20496;-72
2021/06/13 03:35:47;;;;;;;2.10;1.90;;;;;;;;;;5118879;28;20030;-72
2021/06/13 03:38:13;;;;;;;2.33;2.13;;;;;;;;;;5118311;28;20069;-72
2021/06/13 03:40:40;;;;;;;2.35;2.15;;;;;;;;;;5118169;28;20480;-73
2021/06/13 03:43:06;;;;;;;2.45;2.25;;;;;;;;;;5118870;28;20073;-72
2021/06/13 03:45:32;;;;;;;4.45;2.55;;;;;;;;;;5118232;28;20024;-72
2021/06/13 03:47:59;;;;;;;2.05;1.85;;;;;;;;;;5118466;28;20035;-72
2021/06/13 03:50:25;;;;;;;3.10;2.42;;;;;;;;;;5118142;28;20069;-72
2021/06/13 03:52:51;;;;;;;2.42;2.20;;;;;;;;;;5117912;28;20030;-72
2021/06/13 03:55:17;;;;;;;2.53;2.00;;;;;;;;;;5118102;28;20032;-72
2021/06/13 03:57:45;;;;;;;2.90;1.80;;;;;;;;;;5117869;28;20534;-72
2021/06/13 04:00:12;;;;;;;3.03;2.10;;;;;;;;;;5117978;28;20028;-72
2021/06/13 04:02:46;;;;;;;2.50;2.15;;;;;;;;;;5118019;28;20464;-72
2021/06/13 04:05:13;;;;;;;2.50;2.10;;;;;;;;;;5118012;28;20031;-72
2021/06/13 04:07:39;;;;;;;2.20;2.08;;;;;;;;;;5117763;28;20035;-72
2021/06/13 04:10:06;;;;;;;3.72;1.92;;;;;;;;;;5117653;28;20521;-72
2021/06/13 04:12:32;;;;;;;2.42;2.22;;;;;;;;;;5117998;28;20088;-72
2021/06/13 04:14:58;;;;;;;4.60;2.40;;;;;;;;;;5117380;28;20024;-72
2021/06/13 04:17:26;;;;;;;3.72;2.88;;;;;;;;;;5117474;28;20035;-72
2021/06/13 04:19:52;;;;;;;3.40;2.40;;;;;;;;;;5117332;28;20110;-73
2021/06/13 04:22:18;;;;;;;3.10;2.08;;;;;;;;;;5117670;28;20051;-72
2021/06/13 04:24:44;;;;;;;2.17;1.95;;;;;;;;;;5117520;28;20484;-73
2021/06/13 04:27:11;;;;;;;3.67;2.13;;;;;;;;;;5117550;28;20020;-72
2021/06/13 04:29:38;;;;;;;2.75;2.47;;;;;;;;;;5118001;28;20026;-72
2021/06/13 04:32:04;;;;;;;2.80;2.25;;;;;;;;;;5117260;28;20023;-70
2021/06/13 04:34:30;;;;;;;2.97;2.17;;;;;;;;;;5116914;28;20076;-73
2021/06/13 04:36:56;;;;;;;2.05;1.70;;;;;;;;;;5116592;28;20034;-72
2021/06/13 04:39:22;;;;;;;2.58;2.38;;;;;;;;;;5116997;28;20028;-72
2021/06/13 04:41:48;;;;;;;2.58;2.10;;;;;;;;;;5117176;28;20081;-72
2021/06/13 04:44:14;;;;;;;3.95;2.17;;;;;;;;;;5116901;28;20461;-71
2021/06/13 04:46:40;;;;;;;2.75;1.92;;;;;;;;;;5116939;28;20051;-72
2021/06/13 04:49:06;;;;;;;2.70;2.33;;;;;;;;;;5116709;28;20031;-73
2021/06/13 04:51:33;;;;;;;2.88;2.40;;;;;;;;;;5117183;28;20481;-72
2021/06/13 04:54:16;;;;;;;2.80;2.20;;;;;;;;;;5116910;28;20381;-72
2021/06/13 04:56:52;;;;;;;2.63;2.33;;;;;;;;;;5117072;28;20024;-70
2021/06/13 04:59:18;;;;;;;4.50;2.63;;;;;;;;;;5116626;28;20024;-70
2021/06/13 05:01:44;;;;;;;3.75;2.42;;;;;;;;;;5116590;28;20035;-70
2021/06/13 05:04:10;;;;;;;6.68;2.58;;;;;;;;;;5116812;28;20027;-69
2021/06/13 05:06:36;;;;;;;2.53;2.22;;;;;;;;;;5116761;28;20110;-69
2021/06/13 05:09:02;;;;;;;22.48;2.92;;;;;;;;;;5117231;28;20042;-70
2021/06/13 05:11:28;;;;;;;2.03;1.77;;;;;;;;;;5116563;28;20020;-70
2021/06/13 05:13:54;;;;;;;2.10;1.90;;;;;;;;;;5116334;28;20415;-70
2021/06/13 05:16:20;;;;;;;36.35;2.95;;;;;;;;;;5116379;28;20044;-72
2021/06/13 05:18:46;;;;;;;2.97;2.03;;;;;;;;;;5116329;28;20031;-70
2021/06/13 05:21:12;;;;;;;3.78;2.60;;;;;;;;;;5116977;28;20126;-70
2021/06/13 05:23:38;;;;;;;4.00;2.63;;;;;;;;;;5116443;28;20469;-70
2021/06/13 05:26:05;;;;;;;5.15;2.40;;;;;;;;;;5116376;28;20477;-71
2021/06/13 05:28:31;;;;;;;3.78;2.45;;;;;;;;;;5116192;28;20024;-72
2021/06/13 05:30:57;;;;;;;3.10;2.63;;;;;;;;;;5114610;28;20028;-75
2021/06/13 05:33:23;;;;;;;7.18;2.13;;;;;;;;;;5116257;28;20035;-72
2021/06/13 05:35:50;;;;;;;3.03;2.60;;;;;;;;;;5115747;28;20047;-72
2021/06/13 05:38:16;;;;;;;5.15;2.83;;;;;;;;;;5115982;28;20361;-72
2021/06/13 05:40:42;;;;;;;13.45;2.97;;;;;;;;;;5115401;28;20036;-73
2021/06/13 05:43:09;;;;;;;3.92;2.58;;;;;;;;;;5115724;28;20042;-72
2021/06/13 05:45:35;;;;;;;3.60;2.60;;;;;;;;;;5115801;28;20065;-74
2021/06/13 05:48:01;;;;;;;10.38;2.83;;;;;;;;;;5115750;28;20031;-73
2021/06/13 05:50:27;;;;;;;10.25;3.63;;;;;;;;;;5115456;28;20062;-71
2021/06/13 05:52:53;;;;;;;23.10;4.38;;;;;;;;;;5115414;28;20031;-75
2021/06/13 05:55:19;;;;;;;13.52;3.65;;;;;;;;;;5115503;28;20399;-73
2021/06/13 05:57:46;;;;;;;7.15;4.10;;;;;;;;;;5115118;28;20062;-74
2021/06/13 06:00:13;;;;;;;7.50;4.57;;;;;;;;;;5115002;28;20028;-74
2021/06/13 06:02:39;;;;;;;10.30;4.20;;;;;;;;;;5115177;28;20063;-72
2021/06/13 06:05:05;;;;;;;5.90;3.95;;;;;;;;;;5115180;28;20091;-72
2021/06/13 06:07:31;;;;;;;13.18;5.20;;;;;;;;;;5115026;28;20024;-72
2021/06/13 06:09:57;;;;;;;11.25;4.22;;;;;;;;;;5114086;28;20027;-72
2021/06/13 06:12:24;;;;;;;9.45;3.83;;;;;;;;;;5114120;28;20114;-72
2021/06/13 06:14:50;;;;;;;6.75;4.28;;;;;;;;;;5113717;28;20020;-72
2021/06/13 06:17:16;;;;;;;12.27;3.88;;;;;;;;;;5114172;28;20028;-72
2021/06/13 06:19:42;;;;;;;12.95;3.50;;;;;;;;;;5114411;28;20032;-72
2021/06/13 06:22:08;;;;;;;7.85;3.75;;;;;;;;;;5114280;28;20043;-74
2021/06/13 06:24:34;;;;;;;10.88;4.55;;;;;;;;;;5113759;28;20419;-73
2021/06/13 06:27:00;;;;;;;13.88;4.28;;;;;;;;;;5114072;28;20023;-73
2021/06/13 06:29:27;;;;;;;7.57;4.43;;;;;;;;;;5114074;28;20037;-74
2021/06/13 06:31:53;;;;;;;8.02;4.70;;;;;;;;;;5113640;28;20031;-73
2021/06/13 06:34:19;;;;;;;5.80;3.88;;;;;;;;;;5113819;28;20140;-73
2021/06/13 06:36:45;;;;;;;9.10;3.75;;;;;;;;;;5114062;28;20466;-75
2021/06/13 06:39:11;;;;;;;6.18;4.28;;;;;;;;;;5113859;28;20354;-72
2021/06/13 06:41:37;;;;;;;6.72;3.47;;;;;;;;;;5113834;28;20027;-72
2021/06/13 06:44:04;;;;;;;10.93;3.90;;;;;;;;;;5113961;28;20084;-72
2021/06/13 06:46:30;;;;;;;12.77;4.07;;;;;;;;;;5113811;28;20019;-72
2021/06/13 06:48:57;;;;;;;6.80;4.18;;;;;;;;;;5106395;28;20135;-74
2021/06/13 06:51:23;;;;;;;6.68;3.63;;;;;;;;;;5091888;28;20063;-74
2021/06/13 06:53:49;;;;;;;7.03;3.83;;;;;;;;;;5094165;28;20035;-72
2021/06/13 06:56:15;;;;;;;7.13;3.95;;;;;;;;;;5092932;28;20377;-72
2021/06/13 06:58:41;;;;;;;6.30;4.07;;;;;;;;;;5093412;28;20050;-72
2021/06/13 07:01:07;;;;;;;12.88;3.22;;;;;;;;;;5091742;28;20024;-72
2021/06/13 07:03:33;;;;;;;11.13;3.92;;;;;;;;;;5093165;28;20461;-71
2021/06/13 07:05:59;;;;;;;6.30;3.88;;;;;;;;;;5093576;28;20024;-71
2021/06/13 07:08:25;;;;;;;8.93;3.08;;;;;;;;;;5093383;28;20031;-72
2021/06/13 07:10:51;;;;;;;8.38;4.30;;;;;;;;;;5093349;28;20074;-72
2021/06/13 07:13:17;;;;;;;11.05;4.35;;;;;;;;;;5093079;28;20025;-72
2021/06/13 07:15:43;;;;;;;8.90;4.22;;;;;;;;;;5093075;28;20026;-71
2021/06/13 07:18:10;;;;;;;9.73;3.78;;;;;;;;;;5093095;28;20024;-71
2021/06/13 07:20:36;;;;;;;6.22;3.28;;;;;;;;;;5093094;28;20032;-71
2021/06/13 07:23:02;;;;;;;9.70;3.63;;;;;;;;;;5093696;28;20032;-70
2021/06/13 07:25:28;;;;;;;7.40;3.67;;;;;;;;;;5093187;28;20024;-72
2021/06/13 07:27:54;;;;;;;5.95;3.10;;;;;;;;;;5093389;28;20031;-72
2021/06/13 07:30:21;;;;;;;5.93;3.70;;;;;;;;;;5092636;28;20099;-73
2021/06/13 07:32:47;;;;;;;4.75;3.30;;;;;;;;;;5092525;28;20035;-73
2021/06/13 07:35:13;;;;;;;7.70;4.40;;;;;;;;;;5093045;28;20538;-76
2021/06/13 07:37:40;;;;;;;11.55;3.38;;;;;;;;;;5093053;28;20035;-72
2021/06/13 07:40:06;;;;;;;5.88;3.78;;;;;;;;;;5092911;28;20024;-71
2021/06/13 07:42:32;;;;;;;8.25;3.13;;;;;;;;;;5093278;28;20063;-71
2021/06/13 07:44:58;;;;;;;6.95;3.50;;;;;;;;;;5092394;28;20365;-72
2021/06/13 07:47:25;;;;;;;10.10;3.50;;;;;;;;;;5093224;28;20065;-73
2021/06/13 07:49:51;;;;;;;6.45;3.60;;;;;;;;;;5092862;28;20087;-72
2021/06/13 07:52:17;;;;;;;6.63;3.33;;;;;;;;;;5092771;28;20040;-72
2021/06/13 07:54:43;;;;;;;5.43;3.35;;;;;;;;;;5092465;28;20025;-73
2021/06/13 07:57:09;;;;;;;3.78;2.85;;;;;;;;;;5092542;28;20025;-73
2021/06/13 07:59:36;;;;;;;7.32;3.40;;;;;;;;;;5091999;28;20024;-74
2021/06/13 08:02:03;;;;;;;4.90;2.95;;;;;;;;;;5091750;28;20033;-75
2021/06/13 08:04:34;;;;;;;7.10;2.97;;;;;;;;;;5092690;28;20031;-72
2021/06/13 08:07:00;;;;;;;3.97;2.72;;;;;;;;;;5093420;28;20020;-73
2021/06/13 08:09:26;;;;;;;10.15;3.08;;;;;;;;;;5092117;28;20059;-73
2021/06/13 08:11:52;;;;;;;6.85;3.38;;;;;;;;;;5092706;28;20477;-73
2021/06/13 08:14:19;;;;;;;8.52;3.92;;;;;;;;;;5094992;28;20067;-73
2021/06/13 08:16:45;;;;;;;6.18;3.67;;;;;;;;;;5096383;28;20393;-74
2021/06/13 08:19:11;;;;;;;8.32;3.10;;;;;;;;;;5096455;28;20073;-73
2021/06/13 08:21:37;;;;;;;15.27;4.00;;;;;;;;;;5096451;28;20039;-74
2021/06/13 08:24:04;;;;;;;6.57;3.55;;;;;;;;;;5096297;28;20024;-72
2021/06/13 08:26:30;;;;;;;4.85;2.72;;;;;;;;;;5095839;28;20031;-73
2021/06/13 08:28:57;;;;;;;8.95;3.47;;;;;;;;;;5095120;28;20032;-73
2021/06/13 08:31:25;;;;;;;9.50;3.85;;;;;;;;;;5096254;28;20024;-73
2021/06/13 08:33:51;;;;;;;11.52;3.67;;;;;;;;;;5095918;28;20024;-71
2021/06/13 08:36:17;;;;;;;13.52;3.97;;;;;;;;;;5095896;28;20055;-74
2021/06/13 08:38:44;;;;;;;8.15;2.90;;;;;;;;;;5095844;28;20024;-73
2021/06/13 08:41:10;;;;;;;11.63;3.33;;;;;;;;;;5095542;28;20028;-73
2021/06/13 08:43:37;;;;;;;5.72;3.22;;;;;;;;;;5095182;28;20020;-73
2021/06/13 08:46:04;;;;;;;11.10;2.92;;;;;;;;;;5096130;28;20377;-72
2021/06/13 08:48:30;;;;;;;5.45;3.20;;;;;;;;;;5095721;28;20064;-72
2021/06/13 08:50:57;;;;;;;8.85;3.70;;;;;;;;;;5094969;28;20105;-75
2021/06/13 08:53:23;;;;;;;11.02;3.40;;;;;;;;;;5095738;28;20489;-74
2021/06/13 08:55:49;;;;;;;7.88;3.35;;;;;;;;;;5095287;28;20027;-75
2021/06/13 08:58:16;;;;;;;7.97;3.45;;;;;;;;;;5095758;28;20028;-76
2021/06/13 09:00:43;;;;;;;7.55;4.78;;;;;;;;;;5095231;28;20177;-74
2021/06/13 09:03:09;;;;;;;19.92;10.77;;;;;;;;;;5095960;28;20027;-73
2021/06/13 09:05:36;;;;;;;22.92;12.25;;;;;;;;;;5094635;28;20035;-74
2021/06/13 09:08:05;;;;;;;24.52;14.65;;;;;;;;;;5095570;28;20024;-77
2021/06/13 09:10:32;;;;;;;29.08;17.48;;;;;;;;;;5094909;28;20040;-76
2021/06/13 09:13:14;;;;;;;34.75;19.92;;;;;;;;;;5095178;28;20474;-74
2021/06/13 09:15:45;;;;;;;26.95;16.13;;;;;;;;;;5095518;28;20024;-74
2021/06/13 09:18:27;;;;;;;30.50;17.50;;;;;;;;;;5095401;28;20438;-76
2021/06/13 09:20:53;;;;;;;29.40;15.82;;;;;;;;;;5095112;28;20064;-76
2021/06/13 09:23:19;;;;;;;28.98;15.85;;;;;;;;;;5094922;28;20024;-76
2021/06/13 09:25:46;;;;;;;32.58;18.15;;;;;;;;;;5094536;28;20473;-77
2021/06/13 09:28:16;;;;;;;36.03;20.92;;;;;;;;;;5094737;28;20465;-78
2021/06/13 09:30:43;;;;;;;45.47;20.00;;;;;;;;;;5094775;28;20020;-79
2021/06/13 09:33:12;;;;;;;45.95;24.10;;;;;;;;;;5094530;28;20035;-75
2021/06/13 09:35:38;;;;;;;41.53;27.17;;;;;;;;;;5094832;28;20373;-77
2021/06/13 09:38:20;;;;;;;61.80;29.75;;;;;;;;;;5095211;28;20032;-78
2021/06/13 09:40:48;;;;;;;50.83;29.35;;;;;;;;;;5094437;28;20028;-81
2021/06/13 09:43:15;;;;;;;57.17;28.70;;;;;;;;;;5094946;28;20435;-80
2021/06/13 09:45:45;;;;;;;57.72;31.17;;;;;;;;;;5095007;28;20076;-81
2021/06/13 09:48:11;;;;;;;64.03;32.08;;;;;;;;;;5094351;28;20111;-79
2021/06/13 09:50:41;;;;;;;61.90;29.95;;;;;;;;;;5094417;28;20047;-79
2021/06/13 09:53:23;;;;;;;56.67;28.45;;;;;;;;;;5094039;28;20016;-82
2021/06/13 09:55:49;;;;;;;;;;;;;;;;;;5095317;28;20030;-72
2021/06/13 09:58:16;;;;;;;58.00;31.17;;;;;;;;;;5094090;28;19994;-73
2021/06/13 10:00:42;;;;;;;51.30;29.42;;;;;;;;;;5093977;28;20028;-76
2021/06/13 10:03:25;;;;;;;78.07;28.33;;;;;;;;;;5094449;28;20057;-72
2021/06/13 10:05:54;;;;;;;43.47;24.88;;;;;;;;;;5095323;28;20028;-75
2021/06/13 10:08:20;;;;;;;23.42;14.80;;;;;;;;;;5094993;28;20048;-74
2021/06/13 10:10:46;;;;;;;37.80;17.38;;;;;;;;;;5093989;28;20448;-76
2021/06/13 10:13:12;;;;;;;33.08;15.38;;;;;;;;;;5094607;28;20118;-78
2021/06/13 10:15:39;;;;;;;15.73;9.45;;;;;;;;;;5094740;28;20028;-78
2021/06/13 10:18:12;;;;;;;18.25;9.18;;;;;;;;;;5094503;28;20483;-75
2021/06/13 10:20:38;;;;;;;24.02;11.10;;;;;;;;;;5094143;28;20032;-78
2021/06/13 10:23:04;;;;;;;19.35;12.35;;;;;;;;;;5094852;28;20482;-77
2021/06/13 10:25:31;;;;;;;19.20;9.18;;;;;;;;;;5094177;28;20471;-79
2021/06/13 10:27:58;;;;;;;10.10;6.40;;;;;;;;;;5094964;28;20024;-80
2021/06/13 10:30:24;;;;;;;9.63;6.32;;;;;;;;;;5093933;28;20021;-83
2021/06/13 10:32:50;;;;;;;21.35;5.82;;;;;;;;;;5093976;28;20077;-79
2021/06/13 10:35:16;;;;;;;8.40;4.43;;;;;;;;;;5093942;28;20016;-80
2021/06/13 10:37:42;;;;;;;7.07;4.30;;;;;;;;;;5094593;28;20027;-82
2021/06/13 10:40:09;;;;;;;16.70;6.45;;;;;;;;;;5094414;28;20020;-84
2021/06/13 10:42:38;;;;;;;11.35;5.13;;;;;;;;;;5093787;28;20047;-75
2021/06/13 10:45:04;;;;;;;7.07;4.80;;;;;;;;;;5092895;28;20031;-81
2021/06/13 10:47:31;;;;;;;12.65;4.85;;;;;;;;;;5095127;28;20028;-78
2021/06/13 10:50:01;;;;;;;5.68;3.88;;;;;;;;;;5094405;28;20031;-81
2021/06/13 10:52:28;;;;;;;5.68;3.75;;;;;;;;;;5093998;28;20012;-81
2021/06/13 10:54:56;;;;;;;10.00;4.15;;;;;;;;;;5093484;28;20873;-81
2021/06/13 10:57:24;;;;;;;5.43;4.07;;;;;;;;;;5093820;28;20089;-78
2021/06/13 10:59:52;;;;;;;10.63;4.97;;;;;;;;;;5094330;28;20024;-79
2021/06/13 11:02:22;;;;;;;5.72;3.65;;;;;;;;;;5093123;28;20500;-78
2021/06/13 11:04:49;;;;;;;7.68;3.80;;;;;;;;;;5094448;28;20024;-78
2021/06/13 11:07:35;;;;;;;7.70;4.25;;;;;;;;;;5093879;28;20020;-77
2021/06/13 11:10:13;;;;;;;6.47;3.70;;;;;;;;;;5079835;28;20027;-79
2021/06/13 11:12:59;;;;;;;13.18;3.67;;;;;;;;;;5094309;28;20052;-80
2021/06/13 11:15:42;;;;;;;7.00;3.85;;;;;;;;;;5079528;28;20021;-77
2021/06/13 11:18:28;;;;;;;7.75;3.25;;;;;;;;;;5093508;28;20024;-78
2021/06/13 11:21:12;;;;;;;8.63;3.60;;;;;;;;;;5093143;28;20028;-79
2021/06/13 11:23:39;;;;;;;13.75;3.67;;;;;;;;;;5094370;28;20036;-80
2021/06/13 11:26:10;;;;;;;7.35;2.90;;;;;;;;;;5094328;28;20052;-80
2021/06/13 11:28:56;;;;;;;9.23;4.63;;;;;;;;;;5093330;28;20445;-85
2021/06/13 11:31:24;;;;;;;6.30;2.83;;;;;;;;;;5078097;28;20532;-84
2021/06/13 11:34:00;;;;;;;7.78;3.22;;;;;;;;;;5094326;28;20416;-81
2021/06/13 11:36:27;;;;;;;10.07;4.18;;;;;;;;;;5093634;28;20024;-82
2021/06/13 11:38:54;;;;;;;11.50;3.85;;;;;;;;;;5092766;28;20024;-80
2021/06/13 11:41:35;;;;;;;25.27;3.45;;;;;;;;;;5095861;28;20078;-81
2021/06/13 11:44:01;;;;;;;24.55;3.50;;;;;;;;;;5096746;28;20015;-88
2021/06/13 11:46:45;;;;;;;15.65;3.47;;;;;;;;;;5094706;28;20027;-88
2021/06/13 11:49:15;;;;;;;9.55;3.35;;;;;;;;;;5099267;28;20077;-86
2021/06/13 11:51:58;;;;;;;5.82;3.25;;;;;;;;;;5105245;28;20051;-81
2021/06/13 11:54:39;;;;;;;6.45;3.13;;;;;;;;;;5103298;28;20031;-79
2021/06/13 11:57:06;;;;;;;5.75;3.10;;;;;;;;;;5097839;28;20034;-81
2021/06/13 11:59:33;;;;;;;4.88;2.72;;;;;;;;;;5109113;28;20119;-80
2021/06/13 12:02:00;;;;;;;6.00;2.40;;;;;;;;;;5097159;28;20027;-87
2021/06/13 12:04:27;;;;;;;6.70;2.53;;;;;;;;;;5108275;28;20028;-85
2021/06/13 12:06:55;;;;;;;3.67;2.45;;;;;;;;;;5117481;28;20038;-81
2021/06/13 12:09:21;;;;;;;5.82;2.65;;;;;;;;;;5117874;28;20034;-83
2021/06/13 12:11:53;;;;;;;5.15;2.65;;;;;;;;;;5116971;28;20020;-78
2021/06/13 12:14:37;;;;;;;3.55;2.40;;;;;;;;;;5117598;28;20027;-81
2021/06/13 12:17:04;;;;;;;10.13;3.33;;;;;;;;;;5117548;28;20522;-84
2021/06/13 12:19:39;;;;;;;10.00;4.40;;;;;;;;;;5117517;28;20031;-85
2021/06/13 12:22:37;;;;;;;10.40;3.00;;;;;;;;;;5115441;28;20031;-84
2021/06/13 12:27:52;;;;;;;5.72;3.78;;;;;;;;;;5101971;28;20032;-85
2021/06/13 12:30:21;;;;;;;4.35;3.35;;;;;;;;;;5117751;28;20344;-87
2021/06/13 12:32:56;;;;;;;11.70;3.45;;;;;;;;;;5116972;28;20019;-87
2021/06/13 12:35:24;;;;;;;8.15;2.90;;;;;;;;;;5115144;28;20115;-88
2021/06/13 12:38:06;;;;;;;8.02;3.05;;;;;;;;;;5115858;28;20024;-88
2021/06/13 12:40:34;;;;;;;7.90;2.78;;;;;;;;;;5115909;28;20098;-89
2021/06/13 12:43:00;;;;;;;6.20;3.25;;;;;;;;;;5117417;28;20422;-89
2021/06/13 12:45:26;;;;;;;7.18;2.88;;;;;;;;;;5116620;28;20026;-83
2021/06/13 12:47:55;;;;;;;9.00;2.50;;;;;;;;;;5105750;28;20055;-86
2021/06/13 12:50:23;;;;;;;6.95;3.47;;;;;;;;;;5094456;28;20177;-89
2021/06/13 12:52:50;;;;;;;5.43;2.80;;;;;;;;;;5097103;28;20157;-89
2021/06/13 12:55:17;;;;;;;7.03;2.75;;;;;;;;;;5096312;28;20074;-85
2021/06/13 12:57:45;;;;;;;4.07;2.67;;;;;;;;;;5110564;28;20028;-84
2021/06/13 13:00:11;;;;;;;5.55;3.22;;;;;;;;;;5098237;28;20031;-76
2021/06/13 13:02:37;;;;;;;5.97;2.92;;;;;;;;;;5095297;28;20527;-78
2021/06/13 13:05:04;;;;;;;4.50;2.70;;;;;;;;;;5095226;28;20024;-76
2021/06/13 13:07:32;;;;;;;4.07;2.80;;;;;;;;;;5096044;28;20085;-77
2021/06/13 13:10:08;;;;;;;9.20;2.88;;;;;;;;;;5094192;28;20028;-78
2021/06/13 13:12:38;;;;;;;3.30;2.90;;;;;;;;;;5099329;28;20470;-82
2021/06/13 13:15:08;;;;;;;5.55;3.70;;;;;;;;;;5106623;28;20027;-82
2021/06/13 13:17:35;;;;;;;4.82;2.53;;;;;;;;;;5095381;28;20032;-84
2021/06/13 13:20:13;;;;;;;6.70;3.75;;;;;;;;;;5094620;28;20089;-82
2021/06/13 13:22:43;;;;;;;6.75;3.53;;;;;;;;;;5094841;28;20384;-80
2021/06/13 13:25:11;;;;;;;10.50;2.85;;;;;;;;;;5094309;28;20543;-80
2021/06/13 13:27:37;;;;;;;7.00;3.50;;;;;;;;;;5101597;28;20363;-79
2021/06/13 13:30:04;;;;;;;5.18;3.15;;;;;;;;;;5106635;28;20032;-81
2021/06/13 13:32:30;;;;;;;5.22;2.97;;;;;;;;;;5097627;28;20024;-81
2021/06/13 13:34:59;;;;;;;4.93;2.90;;;;;;;;;;5094216;28;20469;-76
2021/06/13 13:37:25;;;;;;;15.15;3.70;;;;;;;;;;5094082;28;20024;-78
2021/06/13 13:40:08;;;;;;;5.45;2.92;;;;;;;;;;5104644;28;20020;-81
2021/06/13 13:42:34;;;;;;;6.50;3.30;;;;;;;;;;5099525;28;20096;-91
2021/06/13 13:45:00;;;;;;;11.93;3.28;;;;;;;;;;5108124;28;20047;-86
2021/06/13 13:47:34;;;;;;;6.22;2.67;;;;;;;;;;5105385;28;20598;-82
2021/06/13 13:50:02;;;;;;;10.52;2.58;;;;;;;;;;5107124;28;20023;-88
2021/06/13 13:52:31;;;;;;;9.02;3.13;;;;;;;;;;5102336;28;20119;-84
2021/06/13 13:55:04;;;;;;;4.80;2.83;;;;;;;;;;5089661;28;20021;-84
2021/06/13 13:57:50;;;;;;;15.00;3.00;;;;;;;;;;5103526;28;20054;-84
2021/06/13 14:00:16;;;;;;;10.02;3.42;;;;;;;;;;5105386;28;20027;-79
2021/06/13 14:02:42;;;;;;;10.40;3.65;;;;;;;;;;5102543;28;20039;-84
2021/06/13 14:05:09;;;;;;;10.18;3.70;;;;;;;;;;5100449;28;20073;-88
2021/06/13 14:07:35;;;;;;;25.85;4.25;;;;;;;;;;5111484;28;20023;-75
2021/06/13 14:10:04;;;;;;;14.70;3.80;;;;;;;;;;5112229;28;20040;-80
2021/06/13 14:12:30;;;;;;;15.07;3.65;;;;;;;;;;5104073;28;20047;-80
2021/06/13 14:14:56;;;;;;;19.77;4.00;;;;;;;;;;5104254;28;20105;-88
2021/06/13 14:17:22;;;;;;;7.47;3.03;;;;;;;;;;5105388;28;20024;-89
2021/06/13 14:19:48;;;;;;;9.15;3.20;;;;;;;;;;5099028;28;20024;-90
2021/06/13 14:22:14;;;;;;;21.58;4.45;;;;;;;;;;5106936;28;20071;-88
2021/06/13 14:24:40;;;;;;;7.38;3.15;;;;;;;;;;5107191;28;20020;-77
2021/06/13 14:27:07;;;;;;;18.60;3.97;;;;;;;;;;5097313;28;20023;-77
2021/06/13 14:29:34;;;;;;;16.33;3.90;;;;;;;;;;5111908;28;20031;-78
2021/06/13 14:32:00;;;;;;;6.72;2.72;;;;;;;;;;5107489;28;20044;-84
2021/06/13 14:34:26;;;;;;;6.68;2.95;;;;;;;;;;5098918;28;20544;-80
2021/06/13 14:36:53;;;;;;;14.13;3.95;;;;;;;;;;5103179;28;20031;-76
2021/06/13 14:39:19;;;;;;;24.00;3.30;;;;;;;;;;5102252;28;20111;-77
2021/06/13 14:41:45;;;;;;;15.52;3.20;;;;;;;;;;5103481;28;20043;-75
2021/06/13 14:44:11;;;;;;;19.25;4.13;;;;;;;;;;5103568;28;20037;-81
2021/06/13 14:46:37;;;;;;;26.02;4.80;;;;;;;;;;5105996;28;20026;-82